createdAt,value
2024-04-14T00:00:27.937Z,170.97
2024-04-14T00:01:27.911Z,171.02
2024-04-14T00:02:27.874Z,171.18
2024-04-14T00:03:27.940Z,171.12
2024-04-14T00:04:27.890Z,170.84
2024-04-14T00:05:27.878Z,170.86
2024-04-14T00:06:27.920Z,170.16
2024-04-14T00:07:27.799Z,170.42
2024-04-14T00:08:27.791Z,170.42
2024-04-14T00:09:27.760Z,171.33
2024-04-14T00:10:27.754Z,172.12
2024-04-14T00:11:27.814Z,172.35
2024-04-14T00:12:27.712Z,172.35
2024-04-14T00:13:27.685Z,170.93
2024-04-14T00:14:27.676Z,171.30
2024-04-14T00:15:27.647Z,171.26
2024-04-14T00:16:27.653Z,170.07
2024-04-14T00:17:27.719Z,169.55
2024-04-14T00:18:27.870Z,169.46
2024-04-14T00:19:27.797Z,169.51
2024-04-14T00:20:27.717Z,169.64
2024-04-14T00:21:27.726Z,169.54
2024-04-14T00:22:27.632Z,169.66
2024-04-14T00:23:27.617Z,169.30
2024-04-14T00:24:27.635Z,169.37
2024-04-14T00:25:27.615Z,169.11
2024-04-14T00:26:27.615Z,168.30
2024-04-14T00:27:27.588Z,170.05
2024-04-14T00:28:27.545Z,170.20
2024-04-14T00:29:27.513Z,170.84
2024-04-14T00:30:27.520Z,172.09
2024-04-14T00:31:27.503Z,173.34
2024-04-14T00:32:27.557Z,174.21
2024-04-14T00:33:27.547Z,173.02
2024-04-14T00:34:27.465Z,170.66
2024-04-14T00:35:27.429Z,170.64
2024-04-14T00:36:27.427Z,170.55
2024-04-14T00:37:27.378Z,170.44
2024-04-14T00:38:27.379Z,170.20
2024-04-14T00:39:27.471Z,170.85
2024-04-14T00:40:27.470Z,171.30
2024-04-14T00:41:27.471Z,171.12
2024-04-14T00:42:27.522Z,172.09
2024-04-14T00:43:27.573Z,172.92
2024-04-14T00:44:27.599Z,171.67
2024-04-14T00:45:27.622Z,172.74
2024-04-14T00:46:27.589Z,171.30
2024-04-14T00:47:27.629Z,169.44
2024-04-14T00:48:27.745Z,168.01
2024-04-14T00:49:27.611Z,166.95
2024-04-14T00:50:27.603Z,167.16
2024-04-14T00:51:27.657Z,167.16
2024-04-14T00:52:27.631Z,167.98
2024-04-14T00:53:27.664Z,168.88
2024-04-14T00:54:27.734Z,169.67
2024-04-14T00:55:27.756Z,170.47
2024-04-14T00:56:27.823Z,170.86
2024-04-14T00:57:27.894Z,170.14
2024-04-14T00:58:27.964Z,170.52
2024-04-14T00:59:27.998Z,169.19
2024-04-14T01:00:28.013Z,170.04
2024-04-14T01:01:28.084Z,169.28
2024-04-14T01:02:28.121Z,168.39
2024-04-14T01:03:28.284Z,166.18
2024-04-14T01:04:28.314Z,165.60
2024-04-14T01:05:28.184Z,165.61
2024-04-14T01:06:28.237Z,164.51
2024-04-14T01:07:28.289Z,164.67
2024-04-14T01:08:28.316Z,165.01
2024-04-14T01:09:28.363Z,164.64
2024-04-14T01:10:28.363Z,163.34
2024-04-14T01:11:28.378Z,162.57
2024-04-14T01:12:28.439Z,162.79
2024-04-14T01:13:28.463Z,162.88
2024-04-14T01:14:28.471Z,163.09
2024-04-14T01:15:28.581Z,161.77
2024-04-14T01:16:28.601Z,163.61
2024-04-14T01:17:28.684Z,163.48
2024-04-14T01:18:28.732Z,163.95
2024-04-14T01:19:28.617Z,163.51
2024-04-14T01:20:28.671Z,162.82
2024-04-14T01:21:28.752Z,162.64
2024-04-14T01:22:28.778Z,162.79
2024-04-14T01:23:28.809Z,162.44
2024-04-14T01:24:28.887Z,162.71
2024-04-14T01:25:28.897Z,161.16
2024-04-14T01:26:28.940Z,160.93
2024-04-14T01:27:28.943Z,159.65
2024-04-14T01:28:28.986Z,160.16
2024-04-14T01:29:29.046Z,159.69
2024-04-14T01:30:29.169Z,161.34
2024-04-14T01:31:29.106Z,159.61
2024-04-14T01:32:29.185Z,158.98
2024-04-14T01:33:29.130Z,158.28
2024-04-14T01:34:29.138Z,159.95
2024-04-14T01:35:29.170Z,159.75
2024-04-14T01:36:29.272Z,159.18
2024-04-14T01:37:29.206Z,160.44
2024-04-14T01:38:29.206Z,160.44
2024-04-14T01:39:29.235Z,160.06
2024-04-14T01:40:29.217Z,159.79
2024-04-14T01:41:29.248Z,159.32
2024-04-14T01:42:29.284Z,158.60
2024-04-14T01:43:29.298Z,157.22
2024-04-14T01:44:29.357Z,157.61
2024-04-14T01:45:29.411Z,157.92
2024-04-14T01:46:29.428Z,157.30
2024-04-14T01:47:29.460Z,158.00
2024-04-14T01:48:29.626Z,159.44
2024-04-14T01:49:29.539Z,159.13
2024-04-14T01:50:29.487Z,159.00
2024-04-14T01:51:29.529Z,159.85
2024-04-14T01:52:29.478Z,161.08
2024-04-14T01:53:29.515Z,163.41
2024-04-14T01:54:29.516Z,163.52
2024-04-14T01:55:29.535Z,163.66
2024-04-14T01:56:29.549Z,163.83
2024-04-14T01:57:29.593Z,163.11
2024-04-14T01:58:29.637Z,163.11
2024-04-14T01:59:29.657Z,163.09
2024-04-14T02:00:30.054Z,161.77
2024-04-14T02:01:29.965Z,161.63
2024-04-14T02:02:29.776Z,161.24
2024-04-14T02:03:29.927Z,160.32
2024-04-14T02:04:29.865Z,157.48
2024-04-14T02:05:29.861Z,155.23
2024-04-14T02:06:29.934Z,155.01
2024-04-14T02:07:29.957Z,156.41
2024-04-14T02:08:29.985Z,157.86
2024-04-14T02:09:30.016Z,156.27
2024-04-14T02:10:30.041Z,154.60
2024-04-14T02:11:30.068Z,155.61
2024-04-14T02:12:30.127Z,155.02
2024-04-14T02:13:30.083Z,155.30
2024-04-14T02:14:30.150Z,155.11
2024-04-14T02:15:30.156Z,155.87
2024-04-14T02:16:30.190Z,157.04
2024-04-14T02:17:30.252Z,157.95
2024-04-14T02:18:30.371Z,158.48
2024-04-14T02:19:30.280Z,159.36
2024-04-14T02:20:30.291Z,160.44
2024-04-14T02:21:30.369Z,160.52
2024-04-14T02:22:30.426Z,158.14
2024-04-14T02:23:30.418Z,157.21
2024-04-14T02:24:30.457Z,157.20
2024-04-14T02:25:30.467Z,157.60
2024-04-14T02:26:30.500Z,158.62
2024-04-14T02:27:30.608Z,157.91
2024-04-14T02:28:30.610Z,156.90
2024-04-14T02:29:30.606Z,157.35
2024-04-14T02:30:30.680Z,158.53
2024-04-14T02:31:30.687Z,157.74
2024-04-14T02:32:30.759Z,157.58
2024-04-14T02:33:30.820Z,158.19
2024-04-14T02:34:30.858Z,157.32
2024-04-14T02:35:30.945Z,155.76
2024-04-14T02:36:31.034Z,156.65
2024-04-14T02:37:31.041Z,156.46
2024-04-14T02:38:31.082Z,155.11
2024-04-14T02:39:31.082Z,154.41
2024-04-14T02:40:31.082Z,156.07
2024-04-14T02:41:31.149Z,157.03
2024-04-14T02:42:31.250Z,157.84
2024-04-14T02:43:31.284Z,159.23
2024-04-14T02:44:31.353Z,159.72
2024-04-14T02:45:31.387Z,158.71
2024-04-14T02:46:31.485Z,157.77
2024-04-14T02:47:31.543Z,158.54
2024-04-14T02:48:31.799Z,160.42
2024-04-14T02:49:31.572Z,161.05
2024-04-14T02:50:31.580Z,161.20
2024-04-14T02:51:31.612Z,160.20
2024-04-14T02:52:31.625Z,159.62
2024-04-14T02:53:31.684Z,160.21
2024-04-14T02:54:31.820Z,159.51
2024-04-14T02:55:31.833Z,159.07
2024-04-14T02:56:31.885Z,158.95
2024-04-14T02:57:31.928Z,158.61
2024-04-14T02:58:31.968Z,157.58
2024-04-14T02:59:31.955Z,157.82
2024-04-14T03:00:31.990Z,157.89
2024-04-14T03:01:32.072Z,158.45
2024-04-14T03:02:32.087Z,158.74
2024-04-14T03:03:32.159Z,156.91
2024-04-14T03:04:32.195Z,156.35
2024-04-14T03:05:32.115Z,156.07
2024-04-14T03:06:32.168Z,156.15
2024-04-14T03:07:32.214Z,156.68
2024-04-14T03:08:32.280Z,154.95
2024-04-14T03:09:32.365Z,154.07
2024-04-14T03:10:32.361Z,153.61
2024-04-14T03:11:32.454Z,152.73
2024-04-14T03:12:32.453Z,153.37
2024-04-14T03:13:32.480Z,154.56
2024-04-14T03:14:32.498Z,156.42
2024-04-14T03:15:32.509Z,157.71
2024-04-14T03:16:32.540Z,158.35
2024-04-14T03:17:32.566Z,158.54
2024-04-14T03:18:32.674Z,158.55
2024-04-14T03:19:32.639Z,158.02
2024-04-14T03:20:32.682Z,157.32
2024-04-14T03:21:32.740Z,156.22
2024-04-14T03:22:32.743Z,155.54
2024-04-14T03:23:32.814Z,154.20
2024-04-14T03:24:32.866Z,154.84
2024-04-14T03:25:32.890Z,153.09
2024-04-14T03:26:32.941Z,152.25
2024-04-14T03:27:33.067Z,152.23
2024-04-14T03:28:33.063Z,152.09
2024-04-14T03:29:33.071Z,151.88
2024-04-14T03:30:33.138Z,151.60
2024-04-14T03:31:33.229Z,149.03
2024-04-14T03:32:33.227Z,148.63
2024-04-14T03:33:33.264Z,148.66
2024-04-14T03:34:33.217Z,148.68
2024-04-14T03:35:33.225Z,149.02
2024-04-14T03:36:33.268Z,149.64
2024-04-14T03:37:34.459Z,149.65
2024-04-14T03:38:33.300Z,148.84
2024-04-14T03:39:33.281Z,147.68
2024-04-14T03:40:33.326Z,146.34
2024-04-14T03:41:33.399Z,146.74
2024-04-14T03:42:33.464Z,146.75
2024-04-14T03:43:33.474Z,146.71
2024-04-14T03:44:33.522Z,146.10
2024-04-14T03:45:34.778Z,144.07
2024-04-14T03:46:38.473Z,145.45
2024-04-14T03:47:33.706Z,145.55
2024-04-14T03:48:33.797Z,145.87
2024-04-14T03:49:33.736Z,146.43
2024-04-14T03:50:33.628Z,148.32
2024-04-14T03:51:34.466Z,150.31
2024-04-14T03:52:34.448Z,150.00
2024-04-14T03:53:33.678Z,151.01
2024-04-14T03:54:33.721Z,150.50
2024-04-14T03:55:33.727Z,149.95
2024-04-14T03:56:33.731Z,148.96
2024-04-14T03:57:33.860Z,148.50
2024-04-14T03:58:33.761Z,148.46
2024-04-14T03:59:33.792Z,146.08
2024-04-14T04:00:34.041Z,145.67
2024-04-14T04:01:33.962Z,142.55
2024-04-14T04:02:34.518Z,142.46
2024-04-14T04:03:34.104Z,143.41
2024-04-14T04:04:39.095Z,143.07
2024-04-14T04:05:34.009Z,143.15
2024-04-14T04:06:34.075Z,143.54
2024-04-14T04:07:34.005Z,144.14
2024-04-14T04:08:34.064Z,144.76
2024-04-14T04:09:34.039Z,144.81
2024-04-14T04:10:34.096Z,141.98
2024-04-14T04:11:34.012Z,139.63
2024-04-14T04:12:34.033Z,136.91
2024-04-14T04:13:34.065Z,133.26
2024-04-14T04:14:34.070Z,131.74
2024-04-14T04:15:34.102Z,131.18
2024-04-14T04:16:34.956Z,131.32
2024-04-14T04:17:36.041Z,130.52
2024-04-14T04:18:34.375Z,129.57
2024-04-14T04:19:34.378Z,129.49
2024-04-14T04:20:34.173Z,130.22
2024-04-14T04:21:34.240Z,129.18
2024-04-14T04:22:34.288Z,129.07
2024-04-14T04:23:34.515Z,129.90
2024-04-14T04:24:34.477Z,130.16
2024-04-14T04:25:34.424Z,130.19
2024-04-14T04:26:34.445Z,129.29
2024-04-14T04:27:36.086Z,128.70
2024-04-14T04:28:34.437Z,129.57
2024-04-14T04:29:34.432Z,130.45
2024-04-14T04:30:35.495Z,132.30
2024-04-14T04:31:34.962Z,131.17
2024-04-14T04:32:36.110Z,130.82
2024-04-14T04:33:34.631Z,130.04
2024-04-14T04:34:34.451Z,130.63
2024-04-14T04:35:34.475Z,132.09
2024-04-14T04:36:34.554Z,133.36
2024-04-14T04:37:34.452Z,133.38
2024-04-14T04:38:34.560Z,133.39
2024-04-14T04:39:34.533Z,132.92
2024-04-14T04:40:34.439Z,133.08
2024-04-14T04:41:34.496Z,130.84
2024-04-14T04:42:34.529Z,130.36
2024-04-14T04:43:34.481Z,128.47
2024-04-14T04:44:34.479Z,128.70
2024-04-14T04:45:34.620Z,129.06
2024-04-14T04:46:34.978Z,128.54
2024-04-14T04:47:34.599Z,129.32
2024-04-14T04:48:34.667Z,128.02
2024-04-14T04:49:34.486Z,127.75
2024-04-14T04:50:34.419Z,128.21
2024-04-14T04:51:34.541Z,128.41
2024-04-14T04:52:34.452Z,129.54
2024-04-14T04:53:34.561Z,132.77
2024-04-14T04:54:34.598Z,139.07
2024-04-14T04:55:34.432Z,144.21
2024-04-14T04:56:34.534Z,146.83
2024-04-14T04:57:34.530Z,147.16
2024-04-14T04:58:34.594Z,146.25
2024-04-14T04:59:34.478Z,145.97
2024-04-14T05:00:34.474Z,144.97
2024-04-14T05:01:34.621Z,144.48
2024-04-14T05:02:34.567Z,144.45
2024-04-14T05:03:34.572Z,145.01
2024-04-14T05:04:34.486Z,145.96
2024-04-14T05:05:34.445Z,146.13
2024-04-14T05:06:34.444Z,146.68
2024-04-14T05:07:42.166Z,50.00
2024-04-14T05:08:42.171Z,50.00
2024-04-14T05:09:42.170Z,50.00
2024-04-14T05:10:42.127Z,50.00
2024-04-14T05:11:42.143Z,50.00
2024-04-14T05:12:42.172Z,50.00
2024-04-14T05:13:42.143Z,50.00
2024-04-14T05:14:42.140Z,50.00
2024-04-14T05:15:42.133Z,51.17
2024-04-14T05:16:42.060Z,60.08
2024-04-14T05:17:42.074Z,76.55
2024-04-14T05:18:42.804Z,81.85
2024-04-14T05:19:42.016Z,87.97
2024-04-14T05:20:42.016Z,86.42
2024-04-14T05:21:42.034Z,73.54
2024-04-14T05:22:42.011Z,61.31
2024-04-14T05:23:41.983Z,52.54
2024-04-14T05:24:41.984Z,49.85
2024-04-14T05:25:41.942Z,50.00
2024-04-14T05:26:41.927Z,52.60
2024-04-14T05:27:41.935Z,50.00
2024-04-14T05:28:41.882Z,51.11
2024-04-14T05:29:41.853Z,51.03
2024-04-14T05:30:41.856Z,51.91
2024-04-14T05:31:41.880Z,51.39
2024-04-14T05:32:41.804Z,54.21
2024-04-14T05:33:41.760Z,56.12
2024-04-14T05:34:41.689Z,52.86
2024-04-14T05:35:41.681Z,51.61
2024-04-14T05:36:41.645Z,51.23
2024-04-14T05:37:41.590Z,57.85
2024-04-14T05:38:41.571Z,72.59
2024-04-14T05:39:41.563Z,85.47
2024-04-14T05:40:41.489Z,98.37
2024-04-14T05:41:41.424Z,107.45
2024-04-14T05:42:41.418Z,113.06
2024-04-14T05:43:41.332Z,113.44
2024-04-14T05:44:41.270Z,121.76
2024-04-14T05:45:41.237Z,130.91
2024-04-14T05:46:41.198Z,142.79
2024-04-14T05:47:41.163Z,160.22
2024-04-14T05:48:41.197Z,186.05
2024-04-14T05:49:41.264Z,199.27
2024-04-14T05:50:41.098Z,199.78
2024-04-14T05:51:41.069Z,201.80
2024-04-14T05:52:41.046Z,208.18
2024-04-14T05:53:41.008Z,221.71
2024-04-14T05:54:40.983Z,237.06
2024-04-14T05:55:40.948Z,222.20
2024-04-14T05:56:40.909Z,202.92
2024-04-14T05:57:40.896Z,199.28
2024-04-14T05:58:40.909Z,186.80
2024-04-14T05:59:40.912Z,176.63
2024-04-14T06:00:40.929Z,175.66
2024-04-14T06:01:40.891Z,178.16
2024-04-14T06:02:40.807Z,184.23
2024-04-14T06:03:40.895Z,189.21
2024-04-14T06:04:40.759Z,196.28
2024-04-14T06:05:40.689Z,191.53
2024-04-14T06:06:40.701Z,183.99
2024-04-14T06:07:40.715Z,170.02
2024-04-14T06:08:40.629Z,165.14
2024-04-14T06:09:40.615Z,179.31
2024-04-14T06:10:40.594Z,187.96
2024-04-14T06:11:40.527Z,200.88
2024-04-14T06:12:40.545Z,200.16
2024-04-14T06:13:40.524Z,195.49
2024-04-14T06:14:40.526Z,181.34
2024-04-14T06:15:40.517Z,181.76
2024-04-14T06:16:41.579Z,182.11
2024-04-14T06:17:40.456Z,183.18
2024-04-14T06:18:40.427Z,184.98
2024-04-14T06:19:40.334Z,179.30
2024-04-14T06:20:40.306Z,177.17
2024-04-14T06:21:40.249Z,177.50
2024-04-14T06:22:40.196Z,182.97
2024-04-14T06:23:40.144Z,189.15
2024-04-14T06:24:40.147Z,198.36
2024-04-14T06:25:40.028Z,199.39
2024-04-14T06:26:40.026Z,198.86
2024-04-14T06:27:40.031Z,187.81
2024-04-14T06:28:40.044Z,186.70
2024-04-14T06:29:39.978Z,185.23
2024-04-14T06:30:40.067Z,183.55
2024-04-14T06:31:39.989Z,193.88
2024-04-14T06:32:40.093Z,200.00
2024-04-14T06:33:40.017Z,201.34
2024-04-14T06:34:39.990Z,198.64
2024-04-14T06:35:39.884Z,196.62
2024-04-14T06:36:39.841Z,192.31
2024-04-14T06:37:39.989Z,195.46
2024-04-14T06:38:39.879Z,199.76
2024-04-14T06:39:40.022Z,200.14
2024-04-14T06:40:39.904Z,199.72
2024-04-14T06:41:39.873Z,199.49
2024-04-14T06:42:39.879Z,182.68
2024-04-14T06:43:39.870Z,172.75
2024-04-14T06:44:39.846Z,179.20
2024-04-14T06:45:39.865Z,186.05
2024-04-14T06:46:39.887Z,198.88
2024-04-14T06:47:39.918Z,199.98
2024-04-14T06:48:39.843Z,200.00
2024-04-14T06:49:39.838Z,198.44
2024-04-14T06:50:39.863Z,182.56
2024-04-14T06:51:39.865Z,180.49
2024-04-14T06:52:39.841Z,179.40
2024-04-14T06:53:39.888Z,158.36
2024-04-14T06:54:39.925Z,156.57
2024-04-14T06:55:39.899Z,166.01
2024-04-14T06:56:39.860Z,162.93
2024-04-14T06:57:39.854Z,163.27
2024-04-14T06:58:39.753Z,164.84
2024-04-14T06:59:39.709Z,168.42
2024-04-14T07:00:43.241Z,176.61
2024-04-14T07:01:39.590Z,164.01
2024-04-14T07:02:39.581Z,166.70
2024-04-14T07:03:39.480Z,168.45
2024-04-14T07:04:39.460Z,171.24
2024-04-14T07:05:39.366Z,172.13
2024-04-14T07:06:39.296Z,164.34
2024-04-14T07:07:39.207Z,165.74
2024-04-14T07:08:39.163Z,161.56
2024-04-14T07:09:39.108Z,155.22
2024-04-14T07:10:39.008Z,149.77
2024-04-14T07:11:38.934Z,146.98
2024-04-14T07:12:38.875Z,139.52
2024-04-14T07:13:38.841Z,138.49
2024-04-14T07:14:38.767Z,131.92
2024-04-14T07:15:38.784Z,135.16
2024-04-14T07:16:38.699Z,143.01
2024-04-14T07:17:38.753Z,154.68
2024-04-14T07:18:38.681Z,149.23
2024-04-14T07:19:38.499Z,124.43
2024-04-14T07:20:38.485Z,117.44
2024-04-14T07:21:38.390Z,117.64
2024-04-14T07:22:38.315Z,117.83
2024-04-14T07:23:38.197Z,119.59
2024-04-14T07:24:38.124Z,124.29
2024-04-14T07:25:38.042Z,132.21
2024-04-14T07:26:37.920Z,140.03
2024-04-14T07:27:37.906Z,140.59
2024-04-14T07:28:37.767Z,137.86
2024-04-14T07:29:37.579Z,137.81
2024-04-14T07:30:37.503Z,139.95
2024-04-14T07:31:37.355Z,154.02
2024-04-14T07:32:37.283Z,154.55
2024-04-14T07:33:37.369Z,154.08
2024-04-14T07:34:37.115Z,148.58
2024-04-14T07:35:37.030Z,147.93
2024-04-14T07:36:37.004Z,144.81
2024-04-14T07:37:36.900Z,134.72
2024-04-14T07:38:36.858Z,132.04
2024-04-14T07:39:37.298Z,120.28
2024-04-14T07:40:36.716Z,124.44
2024-04-14T07:41:36.606Z,117.31
2024-04-14T07:42:36.540Z,117.99
2024-04-14T07:43:36.470Z,119.13
2024-04-14T07:44:36.355Z,120.58
2024-04-14T07:45:36.495Z,115.91
2024-04-14T07:46:36.242Z,127.19
2024-04-14T07:47:36.406Z,121.31
2024-04-14T07:48:36.161Z,122.60
2024-04-14T07:49:35.995Z,134.34
2024-04-14T07:50:35.911Z,133.55
2024-04-14T07:51:35.895Z,135.71
2024-04-14T07:52:35.749Z,140.15
2024-04-14T07:53:35.673Z,142.55
2024-04-14T07:54:38.378Z,143.20
2024-04-14T07:55:35.422Z,146.80
2024-04-14T07:56:35.309Z,152.66
2024-04-14T07:57:35.229Z,163.80
2024-04-14T07:58:35.046Z,186.14
2024-04-14T07:59:35.095Z,192.23
2024-04-14T08:00:34.847Z,194.54
2024-04-14T08:01:34.686Z,186.61
2024-04-14T08:02:34.530Z,186.45
2024-04-14T08:03:46.967Z,182.45
2024-04-14T08:04:35.440Z,168.74
2024-04-14T08:05:36.160Z,170.20
2024-04-14T08:06:34.032Z,147.94
2024-04-14T08:07:33.906Z,129.93
2024-04-14T08:08:33.778Z,124.59
2024-04-14T08:09:33.672Z,123.59
2024-04-14T08:10:33.507Z,137.48
2024-04-14T08:11:33.470Z,138.84
2024-04-14T08:12:33.217Z,149.36
2024-04-14T08:13:33.067Z,154.25
2024-04-14T08:14:32.933Z,168.93
2024-04-14T08:15:32.843Z,200.00
2024-04-14T08:16:32.640Z,190.52
2024-04-14T08:17:32.494Z,171.62
2024-04-14T08:18:32.423Z,155.29
2024-04-14T08:19:32.212Z,145.41
2024-04-14T08:20:32.073Z,151.27
2024-04-14T08:21:33.490Z,160.03
2024-04-14T08:22:31.805Z,160.42
2024-04-14T08:23:31.663Z,161.88
2024-04-14T08:24:31.579Z,163.05
2024-04-14T08:25:31.403Z,162.45
2024-04-14T08:26:31.297Z,153.14
2024-04-14T08:27:31.190Z,129.98
2024-04-14T08:28:31.048Z,123.59
2024-04-14T08:29:30.923Z,103.29
2024-04-14T08:30:30.727Z,98.22
2024-04-14T08:31:30.588Z,115.63
2024-04-14T08:32:30.475Z,118.68
2024-04-14T08:33:30.385Z,113.69
2024-04-14T08:34:30.222Z,114.15
2024-04-14T08:35:30.025Z,149.21
2024-04-14T08:36:29.916Z,160.43
2024-04-14T08:37:29.722Z,128.80
2024-04-14T08:38:29.543Z,122.85
2024-04-14T08:39:29.418Z,114.04
2024-04-14T08:40:29.232Z,101.62
2024-04-14T08:41:29.101Z,87.41
2024-04-14T08:42:28.945Z,80.69
2024-04-14T08:43:28.781Z,87.01
2024-04-14T08:44:28.631Z,71.91
2024-04-14T08:45:28.508Z,49.30
2024-04-14T08:46:28.325Z,50.48
2024-04-14T08:47:28.183Z,37.27
2024-04-14T08:48:28.077Z,43.15
2024-04-14T08:49:27.926Z,48.60
2024-04-14T08:50:27.748Z,53.11
2024-04-14T08:51:27.607Z,49.57
2024-04-14T08:52:27.457Z,50.38
2024-04-14T08:53:27.295Z,50.00
2024-04-14T08:54:27.201Z,56.44
2024-04-14T08:55:27.005Z,51.80
2024-04-14T08:56:26.834Z,50.00
2024-04-14T08:57:26.684Z,48.69
2024-04-14T08:58:26.534Z,50.19
2024-04-14T08:59:29.301Z,49.58
2024-04-14T09:00:26.223Z,49.75
2024-04-14T09:01:26.177Z,49.84
2024-04-14T09:02:25.972Z,49.78
2024-04-14T09:03:25.798Z,43.67
2024-04-14T09:04:25.661Z,45.11
2024-04-14T09:05:25.487Z,45.98
2024-04-14T09:06:25.350Z,50.96
2024-04-14T09:07:25.187Z,50.00
2024-04-14T09:08:25.095Z,49.68
2024-04-14T09:09:24.967Z,54.51
2024-04-14T09:10:24.804Z,54.86
2024-04-14T09:11:24.778Z,60.39
2024-04-14T09:12:24.647Z,57.33
2024-04-14T09:13:24.522Z,60.17
2024-04-14T09:14:24.338Z,63.15
2024-04-14T09:15:24.258Z,64.34
2024-04-14T09:16:24.170Z,61.14
2024-04-14T09:17:24.074Z,56.51
2024-04-14T09:18:23.846Z,56.50
2024-04-14T09:19:23.714Z,58.42
2024-04-14T09:20:23.586Z,56.79
2024-04-14T09:21:28.656Z,54.80
2024-04-14T09:22:24.330Z,54.86
2024-04-14T09:23:23.175Z,55.36
2024-04-14T09:24:23.041Z,56.87
2024-04-14T09:25:22.878Z,61.56
2024-04-14T09:26:22.704Z,62.88
2024-04-14T09:27:22.544Z,63.75
2024-04-14T09:28:22.401Z,59.61
2024-04-14T09:29:22.274Z,59.88
2024-04-14T09:30:22.084Z,57.42
2024-04-14T09:31:21.907Z,61.18
2024-04-14T09:32:21.793Z,66.38
2024-04-14T09:33:21.568Z,64.65
2024-04-14T09:34:21.398Z,62.65
2024-04-14T09:35:21.375Z,65.29
2024-04-14T09:36:21.181Z,62.33
2024-04-14T09:37:20.981Z,67.16
2024-04-14T09:38:20.853Z,68.22
2024-04-14T09:39:20.778Z,68.83
2024-04-14T09:40:20.594Z,63.54
2024-04-14T09:41:20.463Z,67.23
2024-04-14T09:42:21.171Z,65.29
2024-04-14T09:43:20.163Z,64.88
2024-04-14T09:44:22.997Z,64.62
2024-04-14T09:45:19.877Z,60.73
2024-04-14T09:46:19.687Z,58.55
2024-04-14T09:47:19.572Z,55.63
2024-04-14T09:48:19.346Z,54.80
2024-04-14T09:49:19.161Z,58.69
2024-04-14T09:50:22.093Z,62.12
2024-04-14T09:51:18.772Z,55.46
2024-04-14T09:52:18.565Z,51.98
2024-04-14T09:53:18.404Z,45.75
2024-04-14T09:54:18.244Z,49.47
2024-04-14T09:55:18.008Z,51.11
2024-04-14T09:56:17.886Z,46.32
2024-04-14T09:57:17.632Z,52.67
2024-04-14T09:58:17.432Z,55.42
2024-04-14T09:59:17.260Z,58.94
2024-04-14T10:00:17.076Z,56.75
2024-04-14T10:01:17.818Z,51.01
2024-04-14T10:02:18.085Z,53.78
2024-04-14T10:03:16.520Z,54.74
2024-04-14T10:04:16.474Z,52.97
2024-04-14T10:05:16.188Z,53.27
2024-04-14T10:06:16.045Z,50.00
2024-04-14T10:07:15.937Z,53.30
2024-04-14T10:08:18.709Z,51.17
2024-04-14T10:09:15.610Z,49.17
2024-04-14T10:10:15.420Z,47.41
2024-04-14T10:11:15.294Z,45.63
2024-04-14T10:12:15.064Z,42.59
2024-04-14T10:13:14.876Z,48.17
2024-04-14T10:14:14.720Z,58.23
2024-04-14T10:15:14.547Z,54.12
2024-04-14T10:16:14.477Z,52.23
2024-04-14T10:17:14.163Z,57.13
2024-04-14T10:18:13.976Z,61.37
2024-04-14T10:19:13.826Z,56.90
2024-04-14T10:20:13.643Z,51.86
2024-04-14T10:21:13.480Z,50.52
2024-04-14T10:22:13.354Z,50.31
2024-04-14T10:23:13.188Z,50.63
2024-04-14T10:24:13.007Z,50.41
2024-04-14T10:25:12.848Z,51.80
2024-04-14T10:26:12.732Z,49.21
2024-04-14T10:27:12.515Z,56.85
2024-04-14T10:28:12.336Z,53.95
2024-04-14T10:29:12.209Z,56.65
2024-04-14T10:30:12.033Z,56.28
2024-04-14T10:31:11.902Z,58.17
2024-04-14T10:32:11.694Z,66.01
2024-04-14T10:33:11.617Z,53.73
2024-04-14T10:34:11.514Z,59.81
2024-04-14T10:35:11.224Z,59.42
2024-04-14T10:36:11.062Z,60.83
2024-04-14T10:37:10.917Z,61.35
2024-04-14T10:38:10.706Z,64.14
2024-04-14T10:39:10.553Z,72.90
2024-04-14T10:40:10.343Z,72.99
2024-04-14T10:41:10.128Z,77.71
2024-04-14T10:42:09.915Z,69.30
2024-04-14T10:43:09.737Z,68.02
2024-04-14T10:44:09.546Z,65.62
2024-04-14T10:45:09.355Z,59.79
2024-04-14T10:46:09.311Z,65.75
2024-04-14T10:47:09.023Z,66.11
2024-04-14T10:48:08.792Z,58.15
2024-04-14T10:49:08.605Z,59.35
2024-04-14T10:50:08.457Z,69.15
2024-04-14T10:51:08.300Z,58.93
2024-04-14T10:52:08.183Z,52.09
2024-04-14T10:53:08.016Z,55.31
2024-04-14T10:54:07.852Z,57.01
2024-04-14T10:55:07.787Z,63.73
2024-04-14T10:56:07.540Z,59.59
2024-04-14T10:57:07.408Z,67.72
2024-04-14T10:58:07.313Z,69.57
2024-04-14T10:59:07.140Z,75.16
2024-04-14T11:00:07.020Z,75.21
2024-04-14T11:01:06.976Z,74.72
2024-04-14T11:02:06.734Z,54.89
2024-04-14T11:03:06.624Z,53.71
2024-04-14T11:04:06.553Z,63.71
2024-04-14T11:05:06.357Z,64.35
2024-04-14T11:06:06.208Z,74.33
2024-04-14T11:07:06.126Z,71.79
2024-04-14T11:08:05.890Z,63.97
2024-04-14T11:09:05.753Z,63.00
2024-04-14T11:10:05.738Z,61.28
2024-04-14T11:11:05.527Z,65.14
2024-04-14T11:12:05.306Z,61.76
2024-04-14T11:13:05.181Z,56.89
2024-04-14T11:14:05.001Z,51.57
2024-04-14T11:15:05.905Z,56.47
2024-04-14T11:16:04.797Z,56.58
2024-04-14T11:17:04.579Z,53.15
2024-04-14T11:18:04.424Z,50.34
2024-04-14T11:19:04.365Z,57.96
2024-04-14T11:20:04.089Z,54.79
2024-04-14T11:21:03.965Z,50.00
2024-04-14T11:22:03.913Z,53.35
2024-04-14T11:23:03.710Z,54.38
2024-04-14T11:24:03.613Z,51.86
2024-04-14T11:25:03.582Z,56.98
2024-04-14T11:26:03.278Z,57.07
2024-04-14T11:27:03.100Z,57.83
2024-04-14T11:28:02.939Z,57.71
2024-04-14T11:29:02.770Z,56.62
2024-04-14T11:30:02.600Z,58.15
2024-04-14T11:31:02.420Z,52.34
2024-04-14T11:32:02.255Z,50.00
2024-04-14T11:33:02.092Z,52.13
2024-04-14T11:34:01.986Z,57.89
2024-04-14T11:35:01.692Z,53.29
2024-04-14T11:36:01.586Z,57.19
2024-04-14T11:37:01.482Z,54.11
2024-04-14T11:38:01.123Z,52.23
2024-04-14T11:39:01.012Z,50.66
2024-04-14T11:40:00.884Z,50.00
2024-04-14T11:41:00.607Z,50.36
2024-04-14T11:42:00.449Z,54.73
2024-04-14T11:43:00.357Z,51.24
2024-04-14T11:44:00.130Z,54.58
2024-04-14T11:45:00.001Z,57.35
2024-04-14T11:45:59.885Z,60.94
2024-04-14T11:46:59.685Z,57.88
2024-04-14T11:47:59.550Z,63.34
2024-04-14T11:48:59.389Z,59.61
2024-04-14T11:49:59.193Z,61.09
2024-04-14T11:50:59.061Z,59.40
2024-04-14T11:51:58.943Z,50.87
2024-04-14T11:52:58.729Z,51.92
2024-04-14T11:53:58.577Z,55.08
2024-04-14T11:54:58.433Z,52.74
2024-04-14T11:55:58.299Z,55.27
2024-04-14T11:56:58.174Z,60.74
2024-04-14T11:57:58.061Z,59.27
2024-04-14T11:58:57.915Z,57.49
2024-04-14T11:59:57.718Z,58.23
2024-04-14T12:00:57.605Z,53.63
2024-04-14T12:01:57.389Z,57.96
2024-04-14T12:02:57.243Z,52.23
2024-04-14T12:03:57.076Z,52.95
2024-04-14T12:04:56.909Z,58.62
2024-04-14T12:05:56.704Z,59.10
2024-04-14T12:06:56.589Z,60.79
2024-04-14T12:07:56.374Z,65.09
2024-04-14T12:08:56.261Z,70.66
2024-04-14T12:09:56.119Z,64.91
2024-04-14T12:10:55.983Z,68.30
2024-04-14T12:11:55.753Z,65.87
2024-04-14T12:12:55.624Z,67.22
2024-04-14T12:13:55.410Z,72.32
2024-04-14T12:14:55.207Z,75.91
2024-04-14T12:15:55.107Z,77.76
2024-04-14T12:16:54.970Z,80.66
2024-04-14T12:17:54.818Z,75.67
2024-04-14T12:18:54.633Z,72.54
2024-04-14T12:19:54.429Z,70.78
2024-04-14T12:20:54.234Z,69.45
2024-04-14T12:21:54.103Z,75.83
2024-04-14T12:22:53.900Z,70.06
2024-04-14T12:23:53.756Z,68.74
2024-04-14T12:24:53.652Z,70.12
2024-04-14T12:25:53.461Z,73.72
2024-04-14T12:26:53.291Z,75.04
2024-04-14T12:27:53.186Z,71.02
2024-04-14T12:28:52.935Z,65.98
2024-04-14T12:29:52.762Z,63.27
2024-04-14T12:30:52.685Z,65.89
2024-04-14T12:31:52.396Z,70.82
2024-04-14T12:32:52.308Z,67.99
2024-04-14T12:33:52.181Z,66.53
2024-04-14T12:34:51.923Z,64.90
2024-04-14T12:35:51.766Z,67.75
2024-04-14T12:36:51.572Z,64.81